createdAt,value
2023-04-09T00:01:53.510Z,90.85
2023-04-09T00:04:25.116Z,90.84
2023-04-09T00:06:56.276Z,90.74
2023-04-09T00:09:27.542Z,90.86
2023-04-09T00:11:57.322Z,91.07
2023-04-09T00:14:25.775Z,91.48
2023-04-09T00:16:54.930Z,91.27
2023-04-09T00:19:25.740Z,91.37
2023-04-09T00:21:54.297Z,91.45
2023-04-09T00:24:32.581Z,91.35
2023-04-09T00:27:01.272Z,91.53
2023-04-09T00:29:29.851Z,91.55
2023-04-09T00:31:58.674Z,91.68
2023-04-09T00:34:28.691Z,91.63
2023-04-09T00:37:09.372Z,91.74
2023-04-09T00:39:37.798Z,91.66
2023-04-09T00:42:06.422Z,91.70
2023-04-09T00:44:35.404Z,91.74
2023-04-09T00:47:04.669Z,91.75
2023-04-09T00:49:33.940Z,91.85
2023-04-09T00:52:02.505Z,91.78
2023-04-09T00:54:31.145Z,91.81
2023-04-09T00:57:00.996Z,91.80
2023-04-09T00:59:29.494Z,91.82
2023-04-09T01:01:58.347Z,91.82
2023-04-09T01:04:42.291Z,91.83
2023-04-09T01:07:20.730Z,91.87
2023-04-09T01:10:09.490Z,91.92
2023-04-09T01:12:54.353Z,91.93
2023-04-09T01:15:38.349Z,91.77
2023-04-09T01:18:15.659Z,91.96
2023-04-09T01:21:00.925Z,91.94
2023-04-09T01:23:55.182Z,91.89
2023-04-09T01:27:05.102Z,92.09
2023-04-09T01:29:51.898Z,92.08
2023-04-09T01:32:22.623Z,92.23
2023-04-09T01:34:58.543Z,92.26
2023-04-09T01:37:47.546Z,92.22
2023-04-09T01:40:33.810Z,92.51
2023-04-09T01:43:07.862Z,92.29
2023-04-09T01:45:36.710Z,92.37
2023-04-09T01:48:26.708Z,92.59
2023-04-09T01:51:00.032Z,92.68
2023-04-09T01:53:30.599Z,92.81
2023-04-09T01:56:02.450Z,92.91
2023-04-09T01:58:34.230Z,93.01
2023-04-09T02:01:16.107Z,93.16
2023-04-09T02:03:55.045Z,93.12
2023-04-09T02:06:30.177Z,93.20
2023-04-09T02:09:18.658Z,92.91
2023-04-09T02:11:58.477Z,93.21
2023-04-09T02:14:31.268Z,92.77
2023-04-09T02:17:01.601Z,92.96
2023-04-09T02:19:59.700Z,92.90
2023-04-09T02:22:34.195Z,93.06
2023-04-09T02:25:09.847Z,93.23
2023-04-09T02:27:41.388Z,93.06
2023-04-09T02:30:13.216Z,93.24
2023-04-09T02:32:42.342Z,93.33
2023-04-09T02:35:16.178Z,93.37
2023-04-09T02:37:57.444Z,93.23
2023-04-09T02:40:26.726Z,93.33
2023-04-09T02:42:58.342Z,93.21
2023-04-09T02:45:31.413Z,93.24
2023-04-09T02:48:03.417Z,93.27
2023-04-09T02:50:37.848Z,93.29
2023-04-09T02:53:35.667Z,93.05
2023-04-09T02:56:04.691Z,93.09
2023-04-09T02:58:40.868Z,93.08
2023-04-09T03:01:09.340Z,93.09
2023-04-09T03:03:40.480Z,93.01
2023-04-09T03:06:12.121Z,93.00
2023-04-09T03:08:40.852Z,92.89
2023-04-09T03:11:12.320Z,93.02
2023-04-09T03:13:56.524Z,92.92
2023-04-09T03:16:26.671Z,92.99
2023-04-09T03:18:55.067Z,93.02
2023-04-09T03:21:25.838Z,92.96
2023-04-09T03:23:57.143Z,92.85
2023-04-09T03:26:25.893Z,93.01
2023-04-09T03:28:57.223Z,92.92
2023-04-09T03:31:26.270Z,92.95
2023-04-09T03:33:57.644Z,92.87
2023-04-09T03:36:28.569Z,93.20
2023-04-09T03:39:11.767Z,93.07
2023-04-09T03:41:46.651Z,93.24
2023-04-09T03:44:14.965Z,93.29
2023-04-09T03:46:43.424Z,93.30
2023-04-09T03:49:11.743Z,93.31
2023-04-09T03:51:40.110Z,93.34
2023-04-09T03:54:09.102Z,93.54
2023-04-09T03:56:37.536Z,93.66
2023-04-09T03:59:17.410Z,93.80
2023-04-09T04:01:46.137Z,93.80
2023-04-09T04:04:17.324Z,94.02
2023-04-09T04:06:45.924Z,93.92
2023-04-09T04:09:19.431Z,94.08
2023-04-09T04:11:51.610Z,93.91
2023-04-09T04:14:22.578Z,93.99
2023-04-09T04:16:54.488Z,94.24
2023-04-09T04:19:22.894Z,94.01
2023-04-09T04:21:51.229Z,93.99
2023-04-09T04:24:19.995Z,94.14
2023-04-09T04:26:51.370Z,94.35
2023-04-09T04:29:22.519Z,94.42
2023-04-09T04:31:54.519Z,94.40
2023-04-09T04:34:25.777Z,94.52
2023-04-09T04:36:54.410Z,94.56
2023-04-09T04:39:23.073Z,94.45
2023-04-09T04:41:52.079Z,94.59
2023-04-09T04:44:21.043Z,94.56
2023-04-09T04:46:50.725Z,94.83
2023-04-09T04:49:19.198Z,94.73
2023-04-09T04:51:47.909Z,94.62
2023-04-09T04:54:17.021Z,94.78
2023-04-09T04:56:52.755Z,94.73
2023-04-09T04:59:21.166Z,94.75
2023-04-09T05:01:49.905Z,94.73
2023-04-09T05:04:19.609Z,94.92
2023-04-09T05:07:02.592Z,95.04
2023-04-09T05:09:31.291Z,95.20
2023-04-09T05:12:03.380Z,95.23
2023-04-09T05:14:41.366Z,95.22
2023-04-09T05:17:12.185Z,95.50
2023-04-09T05:19:40.771Z,95.52
2023-04-09T05:22:09.579Z,95.77
2023-04-09T05:24:37.829Z,96.00
2023-04-09T05:27:19.644Z,96.39
2023-04-09T05:29:48.985Z,96.59
2023-04-09T05:32:20.794Z,97.04
2023-04-09T05:34:49.151Z,96.99
2023-04-09T05:37:17.350Z,97.01
2023-04-09T05:39:48.503Z,97.37
2023-04-09T05:42:17.597Z,97.30
2023-04-09T05:44:51.502Z,97.37
2023-04-09T05:47:20.424Z,97.42
2023-04-09T05:49:57.739Z,97.53
2023-04-09T05:52:27.093Z,97.49
2023-04-09T05:55:01.348Z,97.49
2023-04-09T05:57:32.461Z,97.50
2023-04-09T06:00:01.344Z,97.56
2023-04-09T06:02:33.064Z,97.71
2023-04-09T06:05:02.183Z,97.57
2023-04-09T06:07:53.667Z,97.54
2023-04-09T06:10:22.577Z,97.88
2023-04-09T06:13:00.307Z,97.73
2023-04-09T06:15:29.293Z,97.97
2023-04-09T06:18:00.367Z,98.02
2023-04-09T06:20:29.086Z,97.97
2023-04-09T06:22:57.397Z,98.00
2023-04-09T06:25:26.412Z,98.22
2023-04-09T06:27:58.118Z,98.31
2023-04-09T06:30:39.382Z,98.34
2023-04-09T06:33:13.417Z,98.35
2023-04-09T06:35:44.697Z,98.47
2023-04-09T06:38:13.493Z,98.34
2023-04-09T06:40:42.544Z,98.40
2023-04-09T06:43:11.518Z,98.42
2023-04-09T06:45:50.101Z,98.48
2023-04-09T06:48:18.511Z,98.52
2023-04-09T06:50:47.395Z,98.62
2023-04-09T06:53:16.556Z,98.61
2023-04-09T06:55:48.324Z,98.70
2023-04-09T06:58:17.296Z,98.65
2023-04-09T07:00:45.727Z,98.95
2023-04-09T07:03:16.307Z,98.90
2023-04-09T07:05:45.556Z,98.74
2023-04-09T07:08:17.488Z,98.77
2023-04-09T07:10:47.654Z,98.72
2023-04-09T07:13:33.727Z,99.04
2023-04-09T07:16:02.289Z,98.77
2023-04-09T07:18:31.436Z,98.75
2023-04-09T07:21:02.703Z,98.74
2023-04-09T07:24:22.659Z,98.72
2023-04-09T07:26:54.026Z,98.64
2023-04-09T07:29:22.808Z,98.33
2023-04-09T07:31:52.429Z,98.29
2023-04-09T07:34:31.108Z,98.51
2023-04-09T07:37:03.307Z,98.49
2023-04-09T07:39:52.000Z,98.58
2023-04-09T07:42:59.735Z,98.44
2023-04-09T07:45:31.229Z,98.78
2023-04-09T07:48:13.030Z,98.69
2023-04-09T07:50:45.394Z,98.70
2023-04-09T07:53:14.559Z,98.83
2023-04-09T07:55:51.659Z,98.90
2023-04-09T07:58:20.363Z,98.77
2023-04-09T08:00:51.755Z,98.87
2023-04-09T08:03:23.001Z,98.61
2023-04-09T08:05:52.082Z,99.01
2023-04-09T08:08:21.976Z,98.97
2023-04-09T08:10:50.942Z,98.95
2023-04-09T08:13:20.844Z,99.04
2023-04-09T08:15:53.341Z,98.99
2023-04-09T08:18:33.343Z,98.88
2023-04-09T08:21:06.311Z,98.84
2023-04-09T08:24:10.213Z,98.89
2023-04-09T08:26:58.107Z,99.03
2023-04-09T08:29:32.222Z,99.17
2023-04-09T08:32:02.962Z,99.15
2023-04-09T08:34:31.694Z,99.00
2023-04-09T08:37:06.622Z,98.80
2023-04-09T08:39:37.916Z,98.82
2023-04-09T08:42:07.462Z,98.77
2023-04-09T08:44:41.769Z,98.66
2023-04-09T08:47:14.788Z,98.57
2023-04-09T08:49:59.559Z,98.62
2023-04-09T08:52:35.498Z,98.37
2023-04-09T08:55:03.802Z,98.48
2023-04-09T08:57:37.883Z,98.23
2023-04-09T09:00:08.222Z,98.15
2023-04-09T09:02:36.824Z,97.76
2023-04-09T09:05:06.882Z,97.79
2023-04-09T09:08:13.567Z,97.85
2023-04-09T09:10:44.504Z,97.87
2023-04-09T09:13:23.159Z,98.12
2023-04-09T09:15:55.478Z,98.21
2023-04-09T09:18:39.368Z,98.12
2023-04-09T09:21:15.987Z,98.26
2023-04-09T09:23:46.157Z,98.11
2023-04-09T09:26:16.711Z,97.90
2023-04-09T09:28:49.733Z,98.08
2023-04-09T09:31:20.308Z,98.05
2023-04-09T09:33:49.346Z,97.91
2023-04-09T09:36:34.869Z,97.89
2023-04-09T09:39:10.577Z,97.96
2023-04-09T09:41:43.631Z,97.45
2023-04-09T09:44:31.384Z,97.45
2023-04-09T09:47:01.051Z,96.91
2023-04-09T09:49:30.188Z,96.84
2023-04-09T09:52:03.183Z,96.89
2023-04-09T09:54:42.768Z,96.99
2023-04-09T09:57:13.905Z,96.71
2023-04-09T09:59:44.438Z,96.54
2023-04-09T10:02:19.661Z,96.14
2023-04-09T10:04:53.049Z,96.18
2023-04-09T10:07:24.146Z,95.85
2023-04-09T10:09:56.802Z,95.76
2023-04-09T10:12:26.538Z,95.78
2023-04-09T10:15:06.365Z,95.66
2023-04-09T10:17:37.216Z,95.30
2023-04-09T10:20:19.131Z,94.78
2023-04-09T10:22:53.129Z,94.54
2023-04-09T10:25:22.549Z,94.22
2023-04-09T10:28:02.512Z,94.57
2023-04-09T10:30:35.403Z,94.01
2023-04-09T10:33:26.536Z,93.67
2023-04-09T10:36:00.105Z,93.30
2023-04-09T10:38:58.164Z,93.81
2023-04-09T10:41:38.536Z,93.45
2023-04-09T10:44:38.393Z,92.91
2023-04-09T10:47:07.054Z,92.91
2023-04-09T10:49:45.052Z,92.74
2023-04-09T10:52:16.025Z,92.73
2023-04-09T10:54:46.553Z,92.15
2023-04-09T10:57:18.312Z,91.83
2023-04-09T10:59:56.413Z,91.51
2023-04-09T11:02:59.756Z,91.79
2023-04-09T11:05:35.799Z,91.46
2023-04-09T11:08:14.506Z,91.01
2023-04-09T11:10:51.894Z,90.50
2023-04-09T11:13:31.433Z,90.86
2023-04-09T11:16:01.615Z,90.14
2023-04-09T11:18:41.383Z,89.68
2023-04-09T11:21:17.362Z,89.44
2023-04-09T11:23:52.816Z,89.36
2023-04-09T11:26:47.399Z,88.71
2023-04-09T11:29:15.801Z,89.15
2023-04-09T11:31:53.525Z,88.27
2023-04-09T11:34:28.275Z,87.90
2023-04-09T11:36:59.318Z,87.65
2023-04-09T11:39:31.194Z,87.81
2023-04-09T11:42:12.492Z,87.68
2023-04-09T11:44:50.540Z,86.91
2023-04-09T11:47:23.709Z,86.52
2023-04-09T11:49:52.018Z,86.08
2023-04-09T11:52:20.915Z,86.27
2023-04-09T11:54:52.743Z,85.75
2023-04-09T11:57:24.472Z,85.79
2023-04-09T12:00:25.382Z,85.83
2023-04-09T12:03:22.111Z,85.28
2023-04-09T12:05:51.335Z,85.02
2023-04-09T12:08:24.544Z,84.81
2023-04-09T12:10:53.908Z,85.20
2023-04-09T12:13:22.462Z,84.34
2023-04-09T12:15:51.658Z,83.71
2023-04-09T12:18:23.563Z,83.45
2023-04-09T12:20:51.852Z,82.47
2023-04-09T12:23:20.310Z,81.85
2023-04-09T12:25:51.443Z,81.18
2023-04-09T12:28:23.377Z,80.35
2023-04-09T12:30:51.956Z,80.09
2023-04-09T12:33:44.062Z,79.22
2023-04-09T12:36:12.654Z,78.87
2023-04-09T12:38:41.210Z,78.94
2023-04-09T12:41:09.788Z,79.00
2023-04-09T12:43:38.916Z,78.37
2023-04-09T12:46:07.597Z,78.43
2023-04-09T12:48:43.465Z,77.84
2023-04-09T12:51:21.098Z,78.02
2023-04-09T12:53:50.067Z,77.45
2023-04-09T12:56:18.636Z,77.36
2023-04-09T12:58:54.433Z,77.32
2023-04-09T13:01:23.050Z,77.21
2023-04-09T13:03:52.202Z,77.04
2023-04-09T13:06:41.781Z,76.93
2023-04-09T13:09:10.032Z,77.58
2023-04-09T13:11:41.021Z,77.01
2023-04-09T13:14:13.677Z,77.11
2023-04-09T13:16:42.038Z,76.95
2023-04-09T13:19:10.794Z,76.72
2023-04-09T13:21:39.846Z,76.23
2023-04-09T13:24:09.765Z,76.46
2023-04-09T13:26:38.609Z,76.47
2023-04-09T13:29:08.403Z,77.09
2023-04-09T13:31:37.456Z,76.87
2023-04-09T13:34:06.681Z,77.43
2023-04-09T13:36:34.907Z,77.69
2023-04-09T13:39:06.191Z,78.16
2023-04-09T13:41:34.512Z,77.91
2023-04-09T13:44:04.728Z,77.68
2023-04-09T13:46:33.753Z,77.50
2023-04-09T13:49:13.188Z,77.31
2023-04-09T13:52:02.155Z,77.59
2023-04-09T13:54:31.216Z,77.06
2023-04-09T13:57:08.775Z,77.25
2023-04-09T13:59:45.999Z,77.07
2023-04-09T14:02:14.929Z,76.73
2023-04-09T14:04:43.760Z,76.62
2023-04-09T14:07:12.188Z,76.69
2023-04-09T14:09:41.253Z,76.85
2023-04-09T14:12:09.553Z,76.65
2023-04-09T14:14:38.152Z,76.55
2023-04-09T14:17:06.783Z,76.16
2023-04-09T14:19:39.569Z,76.71
2023-04-09T14:22:09.133Z,76.98
2023-04-09T14:24:40.302Z,76.84
2023-04-09T14:27:09.766Z,77.06
2023-04-09T14:29:38.249Z,76.89
2023-04-09T14:32:06.643Z,76.60
2023-04-09T14:34:35.419Z,76.74
2023-04-09T14:37:06.511Z,76.57
2023-04-09T14:39:56.201Z,76.53
2023-04-09T14:42:24.602Z,76.61
2023-04-09T14:44:53.360Z,76.73
2023-04-09T14:47:21.680Z,76.63
2023-04-09T14:49:50.244Z,76.38
2023-04-09T14:52:22.037Z,77.00
2023-04-09T14:54:51.199Z,76.44
2023-04-09T14:57:19.601Z,76.84
2023-04-09T14:59:48.199Z,77.33
2023-04-09T15:02:17.718Z,77.22
2023-04-09T15:04:46.505Z,77.05
2023-04-09T15:07:15.751Z,77.20
2023-04-09T15:10:07.539Z,77.49
2023-04-09T15:12:39.082Z,77.68
2023-04-09T15:15:08.800Z,77.88
2023-04-09T15:18:00.351Z,77.93
2023-04-09T15:20:29.972Z,77.84
2023-04-09T15:23:10.919Z,77.81
2023-04-09T15:26:43.380Z,77.73
2023-04-09T15:29:32.495Z,78.02
2023-04-09T15:32:21.722Z,78.39
2023-04-09T15:34:53.404Z,77.70
2023-04-09T15:37:21.593Z,78.01
2023-04-09T15:40:33.526Z,77.61
2023-04-09T15:43:01.739Z,77.81
2023-04-09T15:45:30.865Z,77.33
2023-04-09T15:47:59.336Z,77.44
2023-04-09T15:50:27.653Z,77.80
2023-04-09T15:52:56.314Z,77.55
2023-04-09T15:55:26.580Z,77.74
2023-04-09T15:57:55.277Z,77.19
2023-04-09T16:00:27.013Z,77.20
2023-04-09T16:02:55.547Z,76.34
2023-04-09T16:05:24.077Z,75.60
2023-04-09T16:07:52.483Z,75.14
2023-04-09T16:10:21.540Z,75.20
2023-04-09T16:12:52.740Z,75.50
2023-04-09T16:15:21.305Z,75.71
2023-04-09T16:17:50.161Z,75.31
2023-04-09T16:20:18.749Z,75.32
2023-04-09T16:22:47.247Z,75.83
2023-04-09T16:25:15.491Z,75.59
2023-04-09T16:27:43.602Z,75.50
2023-04-09T16:30:12.918Z,75.78
2023-04-09T16:32:48.982Z,75.75
2023-04-09T16:35:19.170Z,76.17
2023-04-09T16:37:48.251Z,75.76
2023-04-09T16:40:18.736Z,76.44
2023-04-09T16:42:47.490Z,76.09
2023-04-09T16:45:16.099Z,76.42
2023-04-09T16:47:54.812Z,76.12
2023-04-09T16:50:23.678Z,76.81
2023-04-09T16:53:15.501Z,76.62
2023-04-09T16:55:45.242Z,76.82
2023-04-09T16:58:13.498Z,77.02
2023-04-09T17:00:46.933Z,77.10
2023-04-09T17:03:23.873Z,77.22
2023-04-09T17:05:59.706Z,77.46
2023-04-09T17:08:28.407Z,77.27
2023-04-09T17:11:17.951Z,77.64
2023-04-09T17:13:47.235Z,77.84
2023-04-09T17:16:23.064Z,77.89
2023-04-09T17:18:51.699Z,78.13
2023-04-09T17:21:20.623Z,78.14
2023-04-09T17:23:50.291Z,78.55
2023-04-09T17:26:22.040Z,78.17
2023-04-09T17:29:13.842Z,78.67
2023-04-09T17:31:48.934Z,79.02
2023-04-09T17:34:17.755Z,79.51
2023-04-09T17:36:50.503Z,80.10
2023-04-09T17:39:21.289Z,80.26
2023-04-09T17:42:12.081Z,80.97
2023-04-09T17:44:41.416Z,81.56
2023-04-09T17:47:12.509Z,81.88
2023-04-09T17:50:01.695Z,82.07
2023-04-09T17:52:36.828Z,82.91
2023-04-09T17:55:13.181Z,83.74
2023-04-09T17:57:56.826Z,83.96
2023-04-09T18:00:28.676Z,84.80
2023-04-09T18:03:09.096Z,84.96
2023-04-09T18:05:39.524Z,85.49
2023-04-09T18:08:08.713Z,85.50
2023-04-09T18:10:38.064Z,85.92
2023-04-09T18:13:06.542Z,85.98
2023-04-09T18:15:36.454Z,86.53
2023-04-09T18:18:04.813Z,86.57
2023-04-09T18:20:33.534Z,87.20
2023-04-09T18:23:02.138Z,87.35
2023-04-09T18:25:30.904Z,87.88
2023-04-09T18:28:02.397Z,87.61
2023-04-09T18:30:31.401Z,88.00
2023-04-09T18:33:00.109Z,88.17
2023-04-09T18:35:28.693Z,88.46
2023-04-09T18:38:40.925Z,88.36
2023-04-09T18:41:11.525Z,88.86
2023-04-09T18:43:42.634Z,89.16
2023-04-09T18:46:11.089Z,89.69
2023-04-09T18:48:39.513Z,89.20
2023-04-09T18:51:31.340Z,89.92
2023-04-09T18:54:12.882Z,89.76
2023-04-09T18:56:41.282Z,90.20
2023-04-09T18:59:10.226Z,90.43
2023-04-09T19:01:39.204Z,90.48
2023-04-09T19:04:07.981Z,90.80
2023-04-09T19:06:52.825Z,91.05
2023-04-09T19:09:21.773Z,91.39
2023-04-09T19:11:51.014Z,91.61
2023-04-09T19:14:19.380Z,91.45
2023-04-09T19:17:08.638Z,91.70
2023-04-09T19:19:37.532Z,91.97
2023-04-09T19:22:30.105Z,91.96
2023-04-09T19:24:58.444Z,92.23
2023-04-09T19:27:27.075Z,92.34
2023-04-09T19:30:01.323Z,92.94
2023-04-09T19:32:29.893Z,93.11
2023-04-09T19:35:50.281Z,93.33
2023-04-09T19:38:19.798Z,93.43
2023-04-09T19:40:48.249Z,93.48
2023-04-09T19:43:47.571Z,93.36
2023-04-09T19:46:38.975Z,93.89
2023-04-09T19:49:08.121Z,93.88
2023-04-09T19:51:36.637Z,93.91
2023-04-09T19:54:05.580Z,93.81
2023-04-09T19:56:38.365Z,94.27
2023-04-09T19:59:07.981Z,94.34
2023-04-09T20:01:36.880Z,94.32
2023-04-09T20:04:25.677Z,94.84
2023-04-09T20:07:15.614Z,94.85
2023-04-09T20:10:07.709Z,94.97
2023-04-09T20:12:43.134Z,95.30
2023-04-09T20:15:11.907Z,95.26
2023-04-09T20:17:42.008Z,95.42
2023-04-09T20:20:10.951Z,95.51
2023-04-09T20:22:56.499Z,95.78
2023-04-09T20:25:25.900Z,96.19
2023-04-09T20:27:57.533Z,96.43
2023-04-09T20:30:26.190Z,96.84
2023-04-09T20:32:54.736Z,96.96
2023-04-09T20:35:23.058Z,96.97
2023-04-09T20:37:51.942Z,97.17
2023-04-09T20:40:21.326Z,97.66
2023-04-09T20:42:50.106Z,97.77
2023-04-09T20:45:22.044Z,98.11
2023-04-09T20:47:51.091Z,98.54
2023-04-09T20:50:19.973Z,98.51
2023-04-09T20:52:49.770Z,98.94
2023-04-09T20:55:18.170Z,98.98
2023-04-09T20:57:49.985Z,98.90
2023-04-09T21:00:19.174Z,99.23
2023-04-09T21:02:49.430Z,99.43
2023-04-09T21:05:23.448Z,99.54
2023-04-09T21:07:53.125Z,99.56
2023-04-09T21:10:21.840Z,99.92
2023-04-09T21:12:52.737Z,99.86
2023-04-09T21:15:21.364Z,99.89
2023-04-09T21:17:49.682Z,100.00
2023-04-09T21:20:18.441Z,99.98
2023-04-09T21:22:56.448Z,99.89
2023-04-09T21:25:33.817Z,100.00
2023-04-09T21:28:02.741Z,100.00
2023-04-09T21:30:32.416Z,99.98
2023-04-09T21:33:09.751Z,99.99
2023-04-09T21:35:38.355Z,99.95
2023-04-09T21:38:07.656Z,99.96
2023-04-09T21:40:36.131Z,100.00
2023-04-09T21:43:05.020Z,99.96
2023-04-09T21:45:41.000Z,99.91
2023-04-09T21:48:09.968Z,99.96
2023-04-09T21:50:39.115Z,99.87
2023-04-09T21:53:08.442Z,100.00
2023-04-09T21:55:37.604Z,100.00
2023-04-09T21:58:07.306Z,99.99
2023-04-09T22:00:36.223Z,100.00
2023-04-09T22:03:04.982Z,100.00
2023-04-09T22:05:37.065Z,100.00
2023-04-09T22:08:06.308Z,99.97
2023-04-09T22:10:35.194Z,100.00
2023-04-09T22:13:05.040Z,100.00
2023-04-09T22:15:43.596Z,100.00
2023-04-09T22:18:13.265Z,100.00
2023-04-09T22:21:01.925Z,100.00
2023-04-09T22:23:32.146Z,100.00
2023-04-09T22:26:05.677Z,100.00
2023-04-09T22:28:38.651Z,100.00
2023-04-09T22:31:10.753Z,100.00
2023-04-09T22:33:42.781Z,100.00
2023-04-09T22:36:19.561Z,100.00
2023-04-09T22:39:04.708Z,99.97
2023-04-09T22:41:33.422Z,100.00
2023-04-09T22:44:22.192Z,100.00
2023-04-09T22:47:13.820Z,99.96
2023-04-09T22:50:03.388Z,99.98
2023-04-09T22:52:37.772Z,100.00
2023-04-09T22:55:37.658Z,99.88
2023-04-09T22:58:28.896Z,99.87
2023-04-09T23:01:00.461Z,99.94
2023-04-09T23:03:30.142Z,99.98
2023-04-09T23:06:12.171Z,99.89
2023-04-09T23:08:41.201Z,99.90
2023-04-09T23:11:38.849Z,99.94
2023-04-09T23:14:30.729Z,99.87
2023-04-09T23:16:59.251Z,100.00
2023-04-09T23:19:28.174Z,99.92
2023-04-09T23:21:56.958Z,99.99
2023-04-09T23:24:48.705Z,99.92
2023-04-09T23:27:17.801Z,99.92
2023-04-09T23:29:49.617Z,100.00
2023-04-09T23:32:17.880Z,100.00
2023-04-09T23:34:46.618Z,100.00
2023-04-09T23:37:19.263Z,100.00
2023-04-09T23:39:48.406Z,100.00
2023-04-09T23:42:51.432Z,100.00
2023-04-09T23:45:23.752Z,100.00
2023-04-09T23:48:02.492Z,100.00
2023-04-09T23:50:39.769Z,100.00
2023-04-09T23:53:11.155Z,100.00
2023-04-09T23:56:03.002Z,100.00
2023-04-09T23:58:34.388Z,100.00
